Time;durP1;ratioP1;P1;durP2;ratioP2;P2;SDS_P1;SDS_P2;PMS_P1;PMS_P2;Temp;Humidity;BMP_temperature;BMP_pressure;BME280_temperature;BME280_humidity;BME280_pressure;Samples;Min_cycle;Max_cycle;Signal;HPM_P1;HPM_P2
2023/09/25 07:22:58;;;;;;;6.68;2.63;;;;;;;-145.79;62.99;78076.81;5316776;27;20378;-73
2023/09/25 07:25:29;;;;;;;4.15;2.70;;;;;;;-145.79;62.91;78066.22;5288922;28;20427;-73
2023/09/25 07:28:01;;;;;;;4.03;2.63;;;;;;;-145.79;62.38;78059.84;5292669;28;20016;-73
2023/09/25 07:30:32;;;;;;;2.30;1.92;;;;;;;-145.79;62.68;78047.13;5291484;28;20095;-73
2023/09/25 07:33:04;;;;;;;2.92;2.22;;;;;;;-145.79;61.89;78036.53;5288295;28;20033;-73
2023/09/25 07:35:35;;;;;;;3.42;2.25;;;;;;;-145.79;61.97;78030.19;5290195;28;20021;-73
2023/09/25 07:38:07;;;;;;;4.18;2.47;;;;;;;-145.79;61.56;78023.81;5288275;28;20020;-73
2023/09/25 07:40:38;;;;;;;5.65;3.03;;;;;;;-145.79;61.14;78013.22;5287911;28;20028;-73
2023/09/25 07:43:11;;;;;;;2.60;2.40;;;;;;;-145.79;60.66;78015.34;5290840;28;20028;-73
2023/09/25 07:45:42;;;;;;;3.80;2.08;;;;;;;-145.79;60.60;78004.72;5292628;28;20395;-74
2023/09/25 07:48:16;;;;;;;4.28;3.30;;;;;;;-145.79;60.68;77996.25;5291189;28;20024;-74
2023/09/25 07:50:47;;;;;;;4.47;2.50;;;;;;;-145.79;60.20;77989.91;5290821;28;20074;-73
2023/09/25 07:53:18;;;;;;;3.80;2.10;;;;;;;-145.79;60.42;77979.28;5289260;28;20099;-73
2023/09/25 07:55:53;;;;;;;2.45;2.05;;;;;;;-145.79;60.07;77972.94;5287849;28;20029;-73
2023/09/25 07:58:24;;;;;;;3.78;2.20;;;;;;;-145.79;60.13;77972.94;5287028;28;20033;-74
2023/09/25 08:01:07;;;;;;;2.28;1.83;;;;;;;-145.79;60.34;77972.94;5287401;28;20032;-73
2023/09/25 08:03:39;;;;;;;3.55;2.30;;;;;;;-145.79;60.01;77970.81;5287115;28;20029;-73
2023/09/25 08:06:11;;;;;;;2.63;2.20;;;;;;;-145.79;59.88;77958.09;5288388;28;20479;-71
2023/09/25 08:08:43;;;;;;;3.05;1.83;;;;;;;-145.79;59.73;77958.09;5292509;28;20048;-72
2023/09/25 08:11:15;;;;;;;4.22;2.20;;;;;;;-145.79;59.44;77958.09;5290105;28;20078;-73
2023/09/25 08:13:47;;;;;;;2.95;2.60;;;;;;;-145.79;59.76;77949.63;5291946;28;20060;-73
2023/09/25 08:16:18;;;;;;;5.32;3.30;;;;;;;-145.79;59.27;77953.84;5291427;28;20024;-73
2023/09/25 08:18:49;;;;;;;3.53;2.10;;;;;;;-145.79;59.99;77951.72;5286967;28;20099;-73
2023/09/25 08:21:21;;;;;;;5.20;2.50;;;;;;;-145.79;60.31;77945.38;5286990;28;20041;-73
2023/09/25 08:23:52;;;;;;;5.55;2.65;;;;;;;-145.79;59.57;77947.50;5291011;28;20035;-73
2023/09/25 08:26:23;;;;;;;4.20;3.08;;;;;;;-145.79;59.86;77943.25;5290883;28;20099;-73
2023/09/25 08:28:57;;;;;;;5.18;3.05;;;;;;;-145.79;60.07;77939.00;5287857;28;20430;-73
2023/09/25 08:31:28;;;;;;;4.72;2.45;;;;;;;-145.79;60.12;77924.19;5286707;28;20045;-72
2023/09/25 08:34:00;;;;;;;3.08;2.50;;;;;;;-145.79;60.10;77919.94;5278481;28;20109;-73
2023/09/25 08:36:31;;;;;;;3.60;2.90;;;;;;;-145.79;60.20;77917.81;5277130;28;20529;-74
2023/09/25 08:39:03;;;;;;;2.63;2.20;;;;;;;-145.79;60.17;77898.75;5273364;28;20056;-74
2023/09/25 08:41:35;;;;;;;5.80;2.97;;;;;;;-145.79;60.17;77900.84;5273080;28;20028;-73
2023/09/25 08:44:08;;;;;;;5.70;2.38;;;;;;;-145.79;60.47;77886.00;5277192;28;20029;-73
2023/09/25 08:46:40;;;;;;;2.92;2.13;;;;;;;-145.79;60.44;77881.78;5272058;28;20060;-73
2023/09/25 08:49:11;;;;;;;6.00;2.47;;;;;;;-145.79;60.23;77869.06;5275840;28;20052;-73
2023/09/25 08:51:43;;;;;;;7.95;2.47;;;;;;;-145.79;60.55;77852.09;5276789;28;20444;-74
2023/09/25 08:54:14;;;;;;;4.65;2.40;;;;;;;-145.79;59.81;77841.50;5275959;28;20024;-73
2023/09/25 08:56:47;;;;;;;4.40;2.20;;;;;;;-145.79;59.04;77843.63;5276524;28;20032;-73
2023/09/25 08:59:20;;;;;;;4.85;2.17;;;;;;;-145.79;59.68;77828.78;5278576;28;20116;-70
2023/09/25 09:01:51;;;;;;;5.15;2.45;;;;;;;-145.79;59.34;77818.19;5272253;28;20139;-72
2023/09/25 09:04:23;;;;;;;4.57;2.35;;;;;;;-145.79;59.14;77813.94;5271729;28;20056;-72
2023/09/25 09:06:55;;;;;;;3.90;2.00;;;;;;;-145.79;59.29;77796.97;5283428;28;20024;-72
2023/09/25 09:09:26;;;;;;;4.75;2.38;;;;;;;-145.79;58.48;77801.22;5279771;28;20524;-72
2023/09/25 09:11:58;;;;;;;5.53;2.40;;;;;;;-145.79;58.70;77782.16;5274499;28;20105;-72
2023/09/25 09:14:44;;;;;;;3.13;1.95;;;;;;;-145.79;58.77;77775.78;5279968;28;20033;-73
2023/09/25 09:17:15;;;;;;;3.75;2.40;;;;;;;-145.79;58.37;77760.94;5277179;28;20028;-73
2023/09/25 09:19:47;;;;;;;3.90;3.10;;;;;;;-145.79;58.61;77748.22;5276817;28;20016;-73
2023/09/25 09:22:20;;;;;;;4.43;2.38;;;;;;;-145.79;58.45;77741.88;5283375;28;20440;-73
2023/09/25 09:24:56;;;;;;;3.67;2.75;;;;;;;-145.79;58.20;77733.38;5272839;28;20495;-72
2023/09/25 09:27:28;;;;;;;4.03;2.65;;;;;;;-145.79;58.53;77737.63;5282292;28;20025;-73
2023/09/25 09:29:59;;;;;;;2.92;2.17;;;;;;;-145.79;58.48;77744.00;5278288;28;20048;-74
2023/09/25 09:32:30;;;;;;;4.00;2.17;;;;;;;-145.79;58.23;77746.09;5284091;28;20020;-74
2023/09/25 09:35:05;;;;;;;4.22;3.10;;;;;;;-145.79;58.66;77741.88;5275180;28;20431;-74
2023/09/25 09:37:37;;;;;;;3.35;2.22;;;;;;;-145.79;58.92;77735.50;5284384;28;20488;-74
2023/09/25 09:40:11;;;;;;;3.78;2.03;;;;;;;-145.79;59.35;77733.38;5272373;28;20025;-72
2023/09/25 09:42:43;;;;;;;4.88;3.00;;;;;;;-145.79;59.51;77724.91;5271085;28;20139;-73
2023/09/25 09:45:15;;;;;;;2.67;2.33;;;;;;;-145.79;59.28;77714.31;5282970;28;20107;-72
2023/09/25 09:47:48;;;;;;;4.10;2.78;;;;;;;-145.79;59.14;77703.72;5275840;28;20028;-72
2023/09/25 09:50:27;;;;;;;3.85;2.22;;;;;;;-145.79;59.04;77699.47;5271601;28;20020;-72
2023/09/25 09:52:59;;;;;;;4.25;2.30;;;;;;;-145.79;59.25;77691.00;5272116;28;20067;-73
2023/09/25 09:55:31;;;;;;;3.63;2.20;;;;;;;-145.79;58.75;77674.03;5275817;28;20032;-72
2023/09/25 09:58:04;;;;;;;3.13;2.33;;;;;;;-145.79;59.24;77676.16;5274484;28;20119;-72
2023/09/25 10:00:38;;;;;;;5.53;2.75;;;;;;;-145.79;59.38;77661.31;5271791;28;20070;-72
2023/09/25 10:03:10;;;;;;;4.05;2.30;;;;;;;-145.79;58.73;77657.06;5282297;28;20334;-72
2023/09/25 10:05:47;;;;;;;3.70;2.20;;;;;;;-145.79;58.84;77654.97;5275429;28;20037;-74
2023/09/25 10:08:18;;;;;;;2.47;1.92;;;;;;;-145.79;58.70;77648.59;5275780;28;20068;-72
2023/09/25 10:10:51;;;;;;;7.40;3.53;;;;;;;-145.79;58.58;77648.59;5270623;28;20057;-73
2023/09/25 10:13:29;;;;;;;3.15;2.40;;;;;;;-145.79;58.47;77631.63;5278588;28;20024;-70
2023/09/25 10:16:01;;;;;;;6.55;2.67;;;;;;;-145.79;58.16;77625.28;5274617;28;20033;-73
2023/09/25 10:18:33;;;;;;;3.65;2.22;;;;;;;-145.79;57.84;77623.16;5275139;28;20017;-74
2023/09/25 10:21:14;;;;;;;6.18;5.63;;;;;;;-145.79;58.02;77612.56;5278569;28;20123;-75
2023/09/25 10:23:48;;;;;;;4.38;2.05;;;;;;;-145.79;55.57;77608.31;5275241;28;20105;-75
2023/09/25 10:26:24;;;;;;;3.67;2.10;;;;;;;-145.79;56.29;77599.84;5278739;28;20433;-75
2023/09/25 10:29:13;;;;;;;3.70;2.00;;;;;;;-145.79;55.87;77591.38;5275258;28;20028;-75
2023/09/25 10:31:51;;;;;;;2.47;2.03;;;;;;;-145.79;55.64;77589.25;5284163;28;20074;-77
2023/09/25 10:34:25;;;;;;;2.55;1.75;;;;;;;-145.79;55.73;77589.25;5299321;23;20046;-78
2023/09/25 10:43:34;;;;;;;4.25;2.25;;;;;;;-145.79;54.95;77570.16;5202244;23;19922;-74
2023/09/25 10:46:05;;;;;;;5.35;2.67;;;;;;;-145.79;55.58;77559.56;5188023;28;20026;-73
2023/09/25 10:48:39;;;;;;;3.92;1.67;;;;;;;-145.79;55.18;77555.31;5180094;28;20422;-72
2023/09/25 10:51:10;;;;;;;2.15;1.67;;;;;;;-145.79;54.70;77553.22;5180566;28;20105;-71
2023/09/25 10:53:43;;;;;;;4.03;1.70;;;;;;;-145.79;55.42;77542.59;5178551;28;20113;-70
2023/09/25 10:56:16;;;;;;;3.08;1.80;;;;;;;-145.79;55.16;77525.66;5191061;28;20022;-70
2023/09/25 10:58:52;;;;;;;4.35;2.10;;;;;;;-145.79;54.87;77525.66;5193465;28;20037;-70
2023/09/25 11:01:31;;;;;;;2.78;1.67;;;;;;;-145.79;55.28;77515.06;5192889;28;20050;-72
2023/09/25 11:04:03;;;;;;;3.67;1.60;;;;;;;-145.79;54.76;77521.41;5191752;28;20041;-70
2023/09/25 11:06:34;;;;;;;2.92;2.30;;;;;;;-145.79;54.75;77512.94;5188785;28;20026;-68
2023/09/25 11:09:11;;;;;;;3.53;1.90;;;;;;;-145.79;54.45;77519.28;5189819;28;20095;-70
2023/09/25 11:11:43;;;;;;;3.60;2.33;;;;;;;-145.79;54.90;77510.81;5192106;28;20031;-68
2023/09/25 11:14:15;;;;;;;4.47;2.10;;;;;;;-145.79;54.73;77502.34;5192265;28;20042;-71
2023/09/25 11:16:46;;;;;;;3.45;1.95;;;;;;;-145.79;54.35;77500.22;5189574;28;20027;-71
2023/09/25 11:19:18;;;;;;;2.72;1.70;;;;;;;-145.79;54.53;77495.97;5182373;28;20023;-70
2023/09/25 11:21:50;;;;;;;4.45;1.83;;;;;;;-145.79;54.60;77481.13;5190898;28;20037;-71
2023/09/25 11:24:22;;;;;;;2.70;1.95;;;;;;;-145.79;54.62;77457.81;5192520;28;20027;-70
2023/09/25 11:26:53;;;;;;;5.47;2.08;;;;;;;-145.79;54.03;77466.31;5179303;28;20382;-71
2023/09/25 11:29:32;;;;;;;3.40;1.70;;;;;;;-145.79;54.38;77455.69;5194460;28;20022;-71
2023/09/25 11:32:04;;;;;;;7.93;6.38;;;;;;;-145.79;53.09;77453.59;5185779;28;20026;-71
2023/09/25 11:34:38;;;;;;;3.53;1.90;;;;;;;-145.79;53.99;77445.09;5189776;28;20379;-72
2023/09/25 11:37:20;;;;;;;4.70;2.00;;;;;;;-145.79;54.10;77442.97;5190934;28;20061;-72
2023/09/25 11:39:52;;;;;;;4.65;2.03;;;;;;;-145.79;54.35;77434.50;5182711;28;20474;-73
2023/09/25 11:42:24;;;;;;;11.23;8.35;;;;;;;-145.79;53.64;77423.91;5185991;28;20057;-71
2023/09/25 11:44:55;;;;;;;4.75;2.58;;;;;;;-145.79;53.73;77415.44;5189142;28;20105;-73
2023/09/25 11:47:29;;;;;;;4.78;2.20;;;;;;;-145.79;53.03;77402.72;5191952;28;20022;-72
2023/09/25 11:50:01;;;;;;;5.50;2.20;;;;;;;-145.79;52.87;77392.13;5183761;28;20031;-74
2023/09/25 11:52:32;;;;;;;2.70;1.80;;;;;;;-145.79;52.28;77400.59;5189377;28;20103;-69
2023/09/25 11:55:04;;;;;;;2.55;1.77;;;;;;;-145.79;52.05;77398.47;5185017;28;20031;-71
2023/09/25 11:57:37;;;;;;;3.15;2.00;;;;;;;-145.79;52.24;77396.34;5189246;28;20490;-71
2023/09/25 12:00:18;;;;;;;3.50;1.92;;;;;;;-145.79;52.53;77396.34;5188611;28;20034;-71
2023/09/25 12:02:49;;;;;;;2.78;1.67;;;;;;;-145.79;51.94;77396.34;5189782;28;20046;-72
2023/09/25 12:05:21;;;;;;;1.88;1.63;;;;;;;-145.79;52.28;77392.13;5188310;28;20534;-73
2023/09/25 12:07:53;;;;;;;3.00;2.00;;;;;;;-145.79;52.63;77390.00;5187078;28;20037;-71
2023/09/25 12:10:25;;;;;;;3.08;1.80;;;;;;;-145.79;52.14;77385.75;5191552;28;20085;-70
2023/09/25 12:12:56;;;;;;;2.35;1.67;;;;;;;-145.79;52.11;77381.50;5198557;28;20038;-70
2023/09/25 12:15:27;;;;;;;2.63;1.70;;;;;;;-145.79;51.96;77370.91;5195486;28;20065;-68
2023/09/25 12:17:59;;;;;;;2.20;1.63;;;;;;;-145.79;52.69;77362.44;5190654;28;20110;-69
2023/09/25 12:20:30;;;;;;;3.03;1.73;;;;;;;-145.79;52.51;77351.84;5190925;28;20026;-70
2023/09/25 12:23:02;;;;;;;2.95;1.60;;;;;;;-145.79;51.75;77343.38;5191558;28;20078;-71
2023/09/25 12:25:33;;;;;;;3.35;2.25;;;;;;;-145.79;52.51;77328.53;5190427;28;20037;-73
2023/09/25 12:28:05;;;;;;;5.28;2.15;;;;;;;-145.79;53.27;77334.88;5195120;28;20426;-72
2023/09/25 12:30:36;;;;;;;3.22;2.13;;;;;;;-145.79;51.96;77339.13;5193756;28;20056;-69
2023/09/25 12:33:08;;;;;;;3.83;2.05;;;;;;;-145.79;51.70;77339.13;5195171;28;20538;-71
2023/09/25 12:35:41;;;;;;;3.15;1.65;;;;;;;-145.79;52.12;77339.13;5194700;28;20030;-70
2023/09/25 12:38:12;;;;;;;3.38;2.20;;;;;;;-145.79;51.85;77334.88;5191024;28;20074;-70
2023/09/25 12:40:43;;;;;;;5.78;3.83;;;;;;;-145.79;51.55;77339.13;5189837;28;20505;-69
2023/09/25 12:43:15;;;;;;;2.70;1.80;;;;;;;-145.79;51.51;77326.41;5194501;28;20379;-69
2023/09/25 12:45:47;;;;;;;3.50;2.00;;;;;;;-145.79;51.23;77300.97;5196019;28;20034;-69
2023/09/25 12:48:19;;;;;;;5.38;1.80;;;;;;;-145.79;50.73;77298.84;5192447;28;20457;-69
2023/09/25 12:50:50;;;;;;;2.88;2.35;;;;;;;-145.79;51.44;77275.53;5190750;28;20034;-71
2023/09/25 12:53:22;;;;;;;5.40;2.83;;;;;;;-145.79;51.57;77262.81;5189885;28;20029;-70
2023/09/25 12:55:53;;;;;;;3.03;2.30;;;;;;;-145.79;51.21;77258.56;5190502;28;20038;-69
2023/09/25 12:58:25;;;;;;;2.13;1.63;;;;;;;-145.79;50.37;77250.09;5193303;28;20018;-72
2023/09/25 13:00:56;;;;;;;4.30;2.22;;;;;;;-145.79;50.67;77245.84;5193405;28;20026;-72
2023/09/25 13:03:27;;;;;;;3.40;1.88;;;;;;;-145.79;49.32;77241.63;5189965;28;20030;-72
2023/09/25 13:05:59;;;;;;;2.88;2.30;;;;;;;-145.79;51.02;77228.91;5189599;28;20030;-72
2023/09/25 13:08:31;;;;;;;3.50;2.28;;;;;;;-145.79;49.37;77224.66;5192793;28;20081;-72
2023/09/25 13:11:02;;;;;;;4.28;3.05;;;;;;;-145.79;49.17;77195.00;5190780;28;20030;-71
2023/09/25 13:13:33;;;;;;;4.32;2.55;;;;;;;-145.79;48.45;77178.03;5192553;28;20027;-70
2023/09/25 13:16:09;;;;;;;2.88;1.90;;;;;;;-145.79;48.07;77173.78;5193177;28;20082;-71
2023/09/25 13:18:40;;;;;;;3.35;2.40;;;;;;;-145.79;47.47;77192.88;5192802;28;20048;-71
2023/09/25 13:21:12;;;;;;;4.13;2.22;;;;;;;-145.79;49.37;77169.56;5189560;28;20100;-72
2023/09/25 13:23:43;;;;;;;5.65;2.60;;;;;;;-145.79;48.34;77167.44;5190297;28;20038;-70
2023/09/25 13:26:14;;;;;;;3.67;2.70;;;;;;;-145.79;48.34;77146.25;5194647;28;20109;-69
2023/09/25 13:28:46;;;;;;;3.63;3.10;;;;;;;-145.79;47.41;77139.88;5190898;28;20447;-70
2023/09/25 13:31:17;;;;;;;3.65;2.20;;;;;;;-145.79;47.71;77148.34;5190098;28;20382;-71
2023/09/25 13:33:49;;;;;;;1.90;1.70;;;;;;;-145.79;47.67;77118.69;5191553;28;20035;-70
2023/09/25 13:36:20;;;;;;;4.20;2.20;;;;;;;-145.79;47.28;77103.84;5193013;28;20411;-69
2023/09/25 13:38:54;;;;;;;2.83;2.00;;;;;;;-145.79;47.11;77101.72;5186859;28;20022;-70
2023/09/25 13:41:25;;;;;;;2.75;2.05;;;;;;;-145.79;47.31;77122.94;5191742;28;20022;-69
2023/09/25 13:43:56;;;;;;;3.25;1.92;;;;;;;-145.79;47.05;77118.69;5190398;28;20510;-68
2023/09/25 13:46:28;;;;;;;4.97;3.75;;;;;;;-145.79;46.76;77112.31;5192798;28;20159;-69
2023/09/25 13:49:00;;;;;;;2.88;1.95;;;;;;;-145.79;46.88;77129.28;5184802;28;20031;-69
2023/09/25 13:51:31;;;;;;;5.35;2.40;;;;;;;-145.79;48.02;77127.16;5193567;28;20114;-69
2023/09/25 13:54:03;;;;;;;3.90;2.80;;;;;;;-145.79;47.25;77144.13;5191779;28;20073;-69
2023/09/25 13:56:37;;;;;;;4.07;1.90;;;;;;;-145.79;47.69;77148.34;5186087;28;20080;-68
2023/09/25 13:59:08;;;;;;;3.15;2.38;;;;;;;-145.79;48.64;77156.84;5191585;28;20033;-69
2023/09/25 14:01:40;;;;;;;4.22;2.15;;;;;;;-145.79;48.49;77144.13;5192701;28;20034;-69
2023/09/25 14:04:12;;;;;;;4.85;2.20;;;;;;;-145.79;48.61;77125.03;5191481;28;20034;-68
2023/09/25 14:06:45;;;;;;;2.88;2.20;;;;;;;-145.79;47.33;77118.69;5189534;28;20041;-69
2023/09/25 14:09:16;;;;;;;3.15;2.33;;;;;;;-145.79;47.58;77118.69;5192594;28;20383;-69
2023/09/25 14:11:49;;;;;;;4.20;2.30;;;;;;;-145.79;47.61;77099.63;5195503;28;20034;-69
2023/09/25 14:14:21;;;;;;;2.92;2.08;;;;;;;-145.79;47.82;77120.81;5194539;28;20022;-69
2023/09/25 14:16:53;;;;;;;3.58;2.08;;;;;;;-145.79;47.81;77118.69;5186669;28;20045;-68
2023/09/25 14:19:24;;;;;;;4.10;2.13;;;;;;;-145.79;47.61;77105.97;5191835;28;20034;-69
2023/09/25 14:21:55;;;;;;;4.22;2.22;;;;;;;-145.79;48.05;77099.63;5183088;28;20046;-68
2023/09/25 14:24:26;;;;;;;4.10;2.42;;;;;;;-145.79;47.22;77101.72;5190464;28;20557;-68
2023/09/25 14:26:59;;;;;;;2.95;2.45;;;;;;;-145.79;46.66;77108.09;5188877;28;20088;-69
2023/09/25 14:29:31;;;;;;;3.95;2.92;;;;;;;-145.79;47.13;77101.72;5192374;28;20382;-68
2023/09/25 14:32:03;;;;;;;3.88;3.00;;;;;;;-145.79;47.07;77089.00;5187374;28;20034;-69
2023/09/25 14:34:34;;;;;;;2.83;2.08;;;;;;;-145.79;47.11;77084.78;5188502;28;20023;-69
2023/09/25 14:37:06;;;;;;;2.45;2.08;;;;;;;-145.79;46.39;77084.78;5188436;28;20034;-69
2023/09/25 14:39:37;;;;;;;3.38;2.00;;;;;;;-145.79;47.54;77086.91;5188001;28;20027;-70
2023/09/25 14:42:09;;;;;;;3.20;1.73;;;;;;;-145.79;46.97;77089.00;5186318;28;20046;-70
2023/09/25 14:44:40;;;;;;;2.60;2.05;;;;;;;-145.79;47.07;77095.38;5186557;28;20042;-71
2023/09/25 14:47:12;;;;;;;3.42;1.92;;;;;;;-145.79;46.77;77093.25;5186204;28;20056;-68
2023/09/25 14:49:44;;;;;;;4.13;2.65;;;;;;;-145.79;47.44;77086.91;5187137;28;20037;-69
2023/09/25 14:52:15;;;;;;;2.10;1.80;;;;;;;-145.79;47.44;77093.25;5189742;28;20029;-69
2023/09/25 14:54:48;;;;;;;2.88;1.98;;;;;;;-145.79;48.24;77101.72;5191184;28;20026;-69
2023/09/25 14:57:19;;;;;;;3.08;1.88;;;;;;;-145.79;48.54;77076.31;5187309;28;20078;-70
2023/09/25 14:59:50;;;;;;;7.65;6.78;;;;;;;-145.79;47.41;77076.31;5186134;28;20034;-69
2023/09/25 15:02:22;;;;;;;4.05;3.65;;;;;;;-145.79;47.62;77080.53;5189627;28;20309;-69
2023/09/25 15:04:53;;;;;;;3.25;2.50;;;;;;;-145.79;48.04;77086.91;5191143;28;20030;-69
2023/09/25 15:07:26;;;;;;;3.92;2.05;;;;;;;-145.79;47.46;77089.00;5187956;28;20045;-69
2023/09/25 15:09:58;;;;;;;3.13;2.17;;;;;;;-145.79;47.61;77093.25;5185894;28;20061;-69
2023/09/25 15:12:29;;;;;;;3.53;2.92;;;;;;;-145.79;48.23;77089.00;5186375;28;20058;-69
2023/09/25 15:15:01;;;;;;;2.88;1.95;;;;;;;-145.79;47.54;77105.97;5186671;28;20033;-71
2023/09/25 15:17:33;;;;;;;4.15;1.98;;;;;;;-145.79;46.98;77105.97;5189754;28;20475;-69
2023/09/25 15:20:05;;;;;;;3.97;2.33;;;;;;;-145.79;47.52;77099.63;5190155;28;20096;-69
2023/09/25 15:22:37;;;;;;;3.72;2.00;;;;;;;-145.79;47.66;77097.50;5188757;28;20034;-69
2023/09/25 15:25:08;;;;;;;5.07;2.67;;;;;;;-145.79;48.85;77101.72;5186904;28;20093;-69
2023/09/25 15:27:41;;;;;;;3.42;2.30;;;;;;;-145.79;47.79;77110.22;5188017;28;20030;-70
2023/09/25 15:30:12;;;;;;;5.80;3.05;;;;;;;-145.79;48.24;77112.31;5187830;28;20034;-68
2023/09/25 15:32:44;;;;;;;3.15;2.60;;;;;;;-145.79;48.71;77118.69;5191129;28;20027;-69
2023/09/25 15:35:15;;;;;;;3.17;2.00;;;;;;;-145.79;46.76;77114.44;5187899;28;20390;-68
2023/09/25 15:37:47;;;;;;;2.92;1.88;;;;;;;-145.79;46.84;77110.22;5187793;28;20085;-69
2023/09/25 15:40:23;;;;;;;2.95;1.80;;;;;;;-145.79;46.69;77116.56;5189360;28;20030;-69
2023/09/25 15:42:54;;;;;;;3.90;2.33;;;;;;;-145.79;46.72;77108.09;5188281;28;20479;-70
2023/09/25 15:45:25;;;;;;;2.78;2.05;;;;;;;-145.79;46.79;77112.31;5190218;28;20033;-68
2023/09/25 15:47:57;;;;;;;5.75;2.40;;;;;;;-145.79;46.35;77099.63;5191445;28;20018;-70
2023/09/25 15:50:29;;;;;;;3.28;2.17;;;;;;;-145.79;46.67;77118.69;5194472;28;20041;-71
2023/09/25 15:53:01;;;;;;;3.85;1.88;;;;;;;-145.79;47.25;77127.16;5193323;28;20496;-70
2023/09/25 15:55:32;;;;;;;2.10;1.88;;;;;;;-145.79;47.22;77114.44;5190316;28;20023;-69
2023/09/25 15:58:06;;;;;;;4.40;1.95;;;;;;;-145.79;47.30;77131.41;5185971;28;20162;-69
2023/09/25 16:00:38;;;;;;;5.32;2.13;;;;;;;-145.79;47.61;77133.53;5188283;28;20175;-73
2023/09/25 16:03:10;;;;;;;3.00;2.13;;;;;;;-145.79;47.44;77148.34;5197288;28;20130;-75
2023/09/25 16:05:42;;;;;;;4.30;2.60;;;;;;;-145.79;48.24;77154.72;5187532;28;20101;-74
2023/09/25 16:08:13;;;;;;;5.32;2.03;;;;;;;-145.79;48.10;77161.06;5192859;28;20030;-74
2023/09/25 16:10:45;;;;;;;4.55;1.92;;;;;;;-145.79;48.46;77167.44;5188725;28;20383;-74
2023/09/25 16:13:16;;;;;;;3.03;1.90;;;;;;;-145.79;47.91;77171.69;5193434;28;20054;-74
2023/09/25 16:15:48;;;;;;;5.47;2.38;;;;;;;-145.79;48.56;77182.28;5192567;28;20064;-73
2023/09/25 16:18:19;;;;;;;3.10;2.03;;;;;;;-145.79;48.30;77182.28;5191153;28;20034;-74
2023/09/25 16:20:50;;;;;;;23.60;21.42;;;;;;;-145.79;49.06;77188.63;5193609;28;20031;-74
2023/09/25 16:23:22;;;;;;;4.63;3.53;;;;;;;-145.79;49.47;77186.50;5190253;28;20035;-76
2023/09/25 16:25:53;;;;;;;2.63;2.15;;;;;;;-145.79;49.70;77199.22;5193607;28;20023;-73
2023/09/25 16:28:25;;;;;;;4.32;2.45;;;;;;;-145.79;49.98;77205.59;5184955;28;20018;-74
2023/09/25 16:30:56;;;;;;;5.38;3.83;;;;;;;-145.79;49.76;77199.22;5192474;28;20185;-73
2023/09/25 16:33:27;;;;;;;4.50;2.33;;;;;;;-145.79;49.91;77207.72;5193818;28;20018;-73
2023/09/25 16:35:59;;;;;;;4.78;2.30;;;;;;;-145.79;50.42;77216.19;5193007;28;20018;-73
2023/09/25 16:38:31;;;;;;;2.72;2.33;;;;;;;-145.79;51.05;77220.44;5196714;28;20026;-72
2023/09/25 16:41:04;;;;;;;5.00;2.42;;;;;;;-145.79;50.39;77226.78;5186547;28;20027;-74
2023/09/25 16:43:36;;;;;;;4.82;2.72;;;;;;;-145.79;50.95;77243.75;5192400;28;20046;-74
2023/09/25 16:46:07;;;;;;;2.65;2.00;;;;;;;-145.79;51.31;77247.97;5189133;28;20034;-74
2023/09/25 16:48:38;;;;;;;3.47;2.00;;;;;;;-145.79;51.27;77254.34;5189878;28;20035;-74
2023/09/25 16:51:09;;;;;;;4.07;2.45;;;;;;;-145.79;51.59;77254.34;5191241;28;20181;-73
2023/09/25 16:53:41;;;;;;;4.47;1.98;;;;;;;-145.79;52.04;77267.06;5189493;28;20035;-73
